Time;durP1;ratioP1;P1;durP2;ratioP2;P2;SDS_P1;SDS_P2;PMS_P1;PMS_P2;Temp;Humidity;BMP_temperature;BMP_pressure;BME280_temperature;BME280_humidity;BME280_pressure;Samples;Min_cycle;Max_cycle;Signal;HPM_P1;HPM_P2
2022/07/07 00:02:24;;;;;;;2.90;1.80;;;19.30;56.10;;;;;;5065136;28;20529;-48
2022/07/07 00:04:51;;;;;;;2.37;2.20;;;19.30;56.00;;;;;;5066945;28;20855;-47
2022/07/07 00:07:19;;;;;;;2.00;1.77;;;19.30;55.80;;;;;;5068025;28;20480;-47
2022/07/07 00:09:46;;;;;;;2.20;2.00;;;19.30;55.60;;;;;;5065240;28;20457;-47
2022/07/07 00:12:13;;;;;;;1.77;1.67;;;19.20;56.00;;;;;;5062472;28;20485;-47
2022/07/07 00:14:39;;;;;;;2.90;1.80;;;19.20;55.90;;;;;;5062700;28;20944;-48
2022/07/07 00:17:06;;;;;;;2.37;1.80;;;19.20;56.30;;;;;;5062633;28;20451;-47
2022/07/07 00:19:33;;;;;;;1.93;1.73;;;19.20;56.40;;;;;;5069220;28;20448;-47
2022/07/07 00:22:00;;;;;;;2.13;1.30;;;19.30;55.50;;;;;;5062268;28;20462;-47
2022/07/07 00:24:27;;;;;;;2.27;1.63;;;19.30;55.70;;;;;;5065565;28;20465;-47
2022/07/07 00:26:54;;;;;;;2.00;1.90;;;19.30;55.60;;;;;;5050523;28;20954;-47
2022/07/07 00:29:21;;;;;;;2.10;1.80;;;19.20;55.50;;;;;;5066335;28;20540;-48
2022/07/07 00:31:48;;;;;;;1.73;1.63;;;19.20;55.90;;;;;;5065314;28;21014;-47
2022/07/07 00:34:15;;;;;;;1.77;1.67;;;19.20;55.90;;;;;;5057500;28;20486;-48
2022/07/07 00:36:43;;;;;;;1.90;1.80;;;19.20;55.10;;;;;;5062985;28;20966;-47
2022/07/07 00:39:09;;;;;;;1.70;1.60;;;19.20;55.50;;;;;;5065768;28;20958;-48
2022/07/07 00:41:36;;;;;;;3.03;1.67;;;19.20;56.30;;;;;;5045110;28;20504;-47
2022/07/07 00:44:03;;;;;;;2.43;1.97;;;19.10;56.00;;;;;;5064334;28;20538;-47
2022/07/07 00:46:41;;;;;;;2.20;1.87;;;19.10;56.00;;;;;;5061787;28;20468;-47
2022/07/07 00:49:09;;;;;;;3.30;2.07;;;19.10;56.00;;;;;;5065400;28;21073;-47
2022/07/07 00:51:36;;;;;;;2.00;1.60;;;19.10;56.30;;;;;;5062282;28;20497;-48
2022/07/07 00:54:03;;;;;;;3.23;2.40;;;19.10;56.40;;;;;;5064972;28;20460;-47
2022/07/07 00:56:30;;;;;;;2.27;1.53;;;19.10;56.50;;;;;;5065384;28;20489;-48
2022/07/07 00:59:02;;;;;;;3.03;1.50;;;19.10;56.90;;;;;;5065487;28;20817;-47
2022/07/07 01:01:30;;;;;;;1.53;1.40;;;19.10;56.80;;;;;;5048994;28;20485;-47
2022/07/07 01:03:58;;;;;;;1.63;1.47;;;19.20;56.70;;;;;;5056792;28;20442;-48
2022/07/07 01:06:26;;;;;;;2.03;1.60;;;19.20;56.80;;;;;;5049674;28;20460;-47
2022/07/07 01:08:53;;;;;;;4.10;1.70;;;19.20;56.90;;;;;;5063401;28;20548;-47
2022/07/07 01:11:20;;;;;;;4.43;1.47;;;19.20;57.00;;;;;;5049259;28;20463;-47
2022/07/07 01:13:46;;;;;;;3.27;1.53;;;19.10;56.90;;;;;;5059395;28;20908;-47
2022/07/07 01:16:13;;;;;;;2.60;1.27;;;19.10;56.90;;;;;;5061414;28;20489;-47
2022/07/07 01:18:41;;;;;;;1.90;1.37;;;19.00;56.90;;;;;;5047949;28;20468;-47
2022/07/07 01:21:11;;;;;;;3.80;1.30;;;19.00;56.90;;;;;;5046257;28;20450;-47
2022/07/07 01:23:38;;;;;;;1.67;1.13;;;19.00;57.20;;;;;;5062744;28;20461;-47
2022/07/07 01:26:05;;;;;;;1.60;1.50;;;19.00;57.20;;;;;;5050443;28;20460;-47
2022/07/07 01:28:33;;;;;;;1.57;1.40;;;19.00;57.60;;;;;;5064152;28;20469;-47
2022/07/07 01:31:00;;;;;;;2.60;1.23;;;19.00;57.50;;;;;;5062186;28;20460;-47
2022/07/07 01:33:27;;;;;;;1.63;1.40;;;19.10;57.40;;;;;;5064454;28;21018;-47
2022/07/07 01:35:54;;;;;;;2.07;1.33;;;19.10;57.60;;;;;;5047309;28;20441;-48
2022/07/07 01:38:21;;;;;;;1.57;1.20;;;19.10;57.40;;;;;;5062725;28;20468;-48
2022/07/07 01:40:48;;;;;;;2.13;1.10;;;19.10;57.50;;;;;;5063649;28;20454;-47
2022/07/07 01:43:14;;;;;;;2.23;1.40;;;19.10;57.40;;;;;;5061772;28;20459;-47
2022/07/07 01:45:41;;;;;;;3.10;1.57;;;19.00;57.40;;;;;;5061455;28;20481;-47
2022/07/07 01:48:08;;;;;;;1.20;1.10;;;19.10;57.80;;;;;;5065322;28;20481;-47
2022/07/07 01:50:35;;;;;;;2.50;1.10;;;19.00;57.70;;;;;;5047842;28;20458;-47
2022/07/07 01:53:02;;;;;;;1.70;1.23;;;19.00;57.50;;;;;;5059937;28;20481;-47
2022/07/07 01:55:29;;;;;;;2.67;1.10;;;19.10;57.80;;;;;;5056089;28;20957;-47
2022/07/07 01:57:55;;;;;;;2.40;1.53;;;19.10;57.20;;;;;;5062214;28;20453;-47
2022/07/07 02:00:22;;;;;;;1.77;1.50;;;19.10;57.20;;;;;;5062347;28;20482;-47
2022/07/07 02:02:49;;;;;;;3.00;1.43;;;19.00;57.30;;;;;;5048296;28;20446;-47
2022/07/07 02:05:16;;;;;;;1.77;1.23;;;19.00;57.30;;;;;;5047157;28;20465;-47
2022/07/07 02:07:45;;;;;;;2.23;1.20;;;19.00;57.60;;;;;;5062935;28;20469;-47
2022/07/07 02:10:12;;;;;;;1.63;1.07;;;19.00;57.80;;;;;;5045109;28;20525;-48
2022/07/07 02:12:38;;;;;;;1.30;1.20;;;19.00;57.70;;;;;;5061908;28;20490;-48
2022/07/07 02:15:06;;;;;;;1.10;1.00;;;19.10;57.40;;;;;;5048004;28;20454;-48
2022/07/07 02:17:32;;;;;;;2.17;1.30;;;19.10;57.30;;;;;;5049222;28;20473;-48
2022/07/07 02:19:59;;;;;;;1.43;1.33;;;19.00;57.20;;;;;;5048560;28;20960;-48
2022/07/07 02:22:26;;;;;;;1.87;1.30;;;19.00;57.10;;;;;;5051491;28;20500;-48
2022/07/07 02:24:53;;;;;;;1.97;1.33;;;19.00;57.30;;;;;;5048112;28;20454;-48
2022/07/07 02:27:19;;;;;;;2.50;1.20;;;19.00;57.20;;;;;;5060927;28;20457;-48
2022/07/07 02:29:46;;;;;;;2.00;1.13;;;19.00;58.00;;;;;;5061763;28;20457;-48
2022/07/07 02:32:13;;;;;;;1.37;1.27;;;19.00;58.00;;;;;;5065429;28;20485;-46
2022/07/07 02:34:39;;;;;;;2.50;1.40;;;19.00;57.80;;;;;;5033080;28;20944;-47
2022/07/07 02:37:06;;;;;;;1.20;1.10;;;19.00;57.80;;;;;;5046871;28;20455;-47
2022/07/07 02:39:33;;;;;;;1.47;1.37;;;19.00;57.70;;;;;;5061962;28;20450;-47
2022/07/07 02:42:00;;;;;;;1.97;1.50;;;19.00;57.30;;;;;;5061004;28;20461;-47
2022/07/07 02:44:26;;;;;;;1.23;1.20;;;19.00;57.00;;;;;;5043996;28;20463;-46
2022/07/07 02:46:53;;;;;;;1.40;1.30;;;19.00;57.60;;;;;;5047993;28;20469;-46
2022/07/07 02:49:20;;;;;;;3.07;1.43;;;19.00;57.60;;;;;;5062610;28;20554;-46
2022/07/07 02:51:46;;;;;;;0.90;0.90;;;19.00;57.60;;;;;;5048944;28;20465;-47
2022/07/07 02:54:13;;;;;;;1.17;1.00;;;19.10;57.70;;;;;;5063062;28;20444;-49
2022/07/07 02:56:40;;;;;;;1.90;1.00;;;19.10;57.70;;;;;;5059718;28;20454;-49
2022/07/07 02:59:07;;;;;;;3.60;1.20;;;19.10;57.10;;;;;;5058430;28;20802;-47
2022/07/07 03:01:33;;;;;;;1.20;1.10;;;19.00;57.20;;;;;;5059888;28;20453;-47
2022/07/07 03:04:00;;;;;;;2.10;1.20;;;19.00;57.10;;;;;;5061796;28;20798;-47
2022/07/07 03:06:27;;;;;;;2.50;1.20;;;18.90;57.30;;;;;;5058904;28;20544;-47
2022/07/07 03:08:54;;;;;;;1.30;1.20;;;18.90;57.40;;;;;;5045814;28;20453;-47
2022/07/07 03:11:20;;;;;;;3.30;1.37;;;18.90;57.90;;;;;;5042918;28;20979;-47
2022/07/07 03:13:47;;;;;;;1.67;1.40;;;18.90;58.00;;;;;;5056992;28;21026;-47
2022/07/07 03:16:14;;;;;;;1.60;1.30;;;18.90;58.10;;;;;;5046710;28;20449;-47
2022/07/07 03:18:41;;;;;;;2.33;1.20;;;19.00;58.00;;;;;;5060110;28;20728;-47
2022/07/07 03:21:08;;;;;;;1.10;0.97;;;19.00;58.00;;;;;;5059211;28;20553;-48
2022/07/07 03:23:35;;;;;;;3.17;1.30;;;19.00;57.50;;;;;;5060273;28;20489;-47
2022/07/07 03:26:01;;;;;;;1.17;1.10;;;19.00;57.10;;;;;;5030927;28;20441;-48
2022/07/07 03:28:28;;;;;;;5.07;1.90;;;19.00;57.50;;;;;;5058462;28;21131;-48
2022/07/07 03:30:55;;;;;;;2.47;1.10;;;18.90;57.80;;;;;;5065800;28;20493;-47
2022/07/07 03:33:22;;;;;;;1.07;1.00;;;19.00;57.60;;;;;;5064741;28;20495;-47
2022/07/07 03:35:54;;;;;;;1.30;1.20;;;19.00;58.00;;;;;;5064607;28;20637;-47
2022/07/07 03:38:20;;;;;;;4.00;1.20;;;19.00;58.20;;;;;;5054412;28;20453;-48
2022/07/07 03:40:47;;;;;;;2.30;1.50;;;19.00;58.20;;;;;;5046984;28;20451;-47
2022/07/07 03:43:14;;;;;;;6.20;1.50;;;19.00;58.10;;;;;;5062871;28;20457;-47
2022/07/07 03:45:41;;;;;;;1.47;1.37;;;19.10;57.90;;;;;;5063160;28;20550;-47
2022/07/07 03:48:08;;;;;;;2.33;1.30;;;19.00;57.70;;;;;;5050711;28;20481;-49
2022/07/07 03:50:34;;;;;;;1.30;1.07;;;19.00;57.50;;;;;;5063235;28;20503;-49
2022/07/07 03:53:01;;;;;;;2.63;1.00;;;19.00;57.80;;;;;;5047753;28;20485;-49
2022/07/07 03:55:28;;;;;;;4.93;1.30;;;19.00;57.90;;;;;;5060132;28;20958;-49
2022/07/07 03:57:59;;;;;;;2.80;1.37;;;19.00;58.00;;;;;;5062289;28;20458;-49
2022/07/07 04:00:26;;;;;;;2.13;1.60;;;19.00;57.50;;;;;;5044226;28;20485;-49
2022/07/07 04:02:53;;;;;;;2.33;1.70;;;19.00;58.10;;;;;;5063366;28;20481;-49
2022/07/07 04:05:19;;;;;;;2.37;1.77;;;19.00;57.80;;;;;;5064510;28;20498;-49
2022/07/07 04:07:46;;;;;;;2.20;1.57;;;19.10;58.10;;;;;;5048355;28;20443;-48
2022/07/07 04:10:13;;;;;;;1.67;1.30;;;19.10;58.10;;;;;;5062252;28;20474;-48
2022/07/07 04:12:40;;;;;;;2.77;1.37;;;19.00;58.20;;;;;;5046454;28;20489;-48
2022/07/07 04:15:08;;;;;;;2.27;1.70;;;19.10;58.20;;;;;;5062161;28;20511;-49
2022/07/07 04:17:34;;;;;;;2.47;1.60;;;19.10;57.70;;;;;;5064211;28;20470;-49
2022/07/07 04:20:02;;;;;;;2.63;1.70;;;19.00;57.90;;;;;;5048102;28;20454;-49
2022/07/07 04:22:29;;;;;;;3.77;1.80;;;19.00;57.90;;;;;;5065181;28;20958;-49
2022/07/07 04:24:55;;;;;;;2.57;2.10;;;19.10;58.20;;;;;;5048964;28;20460;-49
2022/07/07 04:27:22;;;;;;;3.47;1.60;;;19.10;58.40;;;;;;5043845;28;20802;-49
2022/07/07 04:29:49;;;;;;;4.40;1.77;;;19.10;58.20;;;;;;5043190;28;20982;-49
2022/07/07 04:32:16;;;;;;;3.27;2.27;;;19.20;58.30;;;;;;5038388;28;20461;-49
2022/07/07 04:34:43;;;;;;;3.23;2.20;;;19.20;58.40;;;;;;5047369;28;21036;-49
2022/07/07 04:37:09;;;;;;;3.10;1.90;;;19.20;58.10;;;;;;5065657;28;20483;-49
2022/07/07 04:39:36;;;;;;;1.60;1.50;;;19.20;58.20;;;;;;5062792;28;20462;-49
2022/07/07 04:42:04;;;;;;;1.97;1.87;;;19.20;58.10;;;;;;5059736;28;20469;-49
2022/07/07 04:44:31;;;;;;;3.83;2.20;;;19.20;58.30;;;;;;5061444;28;20455;-49
2022/07/07 04:46:58;;;;;;;2.80;2.10;;;19.20;58.10;;;;;;5058388;28;20486;-49
2022/07/07 04:49:25;;;;;;;4.10;2.47;;;19.20;58.30;;;;;;5060139;28;20461;-49
2022/07/07 04:51:51;;;;;;;2.53;2.10;;;19.20;58.30;;;;;;5061835;28;20891;-49
2022/07/07 04:54:18;;;;;;;4.57;2.13;;;19.20;58.40;;;;;;5060627;28;20490;-50
2022/07/07 04:56:45;;;;;;;2.40;2.20;;;19.20;58.50;;;;;;5060144;28;20857;-50
2022/07/07 04:59:12;;;;;;;3.27;1.80;;;19.20;58.70;;;;;;5029678;28;20969;-50
2022/07/07 05:01:39;;;;;;;2.40;2.20;;;19.20;59.00;;;;;;5048202;28;20454;-50
2022/07/07 05:04:05;;;;;;;2.77;2.17;;;19.20;59.00;;;;;;5063609;28;20537;-50
2022/07/07 05:06:33;;;;;;;3.90;2.03;;;19.20;59.20;;;;;;5060130;28;20524;-50
2022/07/07 05:08:59;;;;;;;5.40;2.03;;;19.20;59.20;;;;;;5061074;28;20474;-50
2022/07/07 05:11:26;;;;;;;2.37;2.17;;;19.20;59.40;;;;;;5065452;28;20460;-50
2022/07/07 05:13:53;;;;;;;2.87;2.67;;;19.20;59.60;;;;;;5059053;28;20493;-50
2022/07/07 05:16:20;;;;;;;2.03;1.83;;;19.20;59.70;;;;;;5055301;28;20462;-50
2022/07/07 05:18:46;;;;;;;2.30;2.10;;;19.20;59.80;;;;;;5062844;28;20469;-50
2022/07/07 05:21:13;;;;;;;8.27;2.77;;;19.20;60.00;;;;;;5060364;28;20457;-50
2022/07/07 05:23:40;;;;;;;3.03;2.20;;;19.20;60.20;;;;;;5059720;28;20458;-50
2022/07/07 05:26:07;;;;;;;2.87;2.33;;;19.20;60.10;;;;;;5048068;28;20453;-50
2022/07/07 05:28:36;;;;;;;3.27;2.20;;;19.20;60.30;;;;;;5062291;28;20826;-50
2022/07/07 05:31:02;;;;;;;2.80;2.10;;;19.20;60.40;;;;;;5047017;28;20452;-50
2022/07/07 05:33:29;;;;;;;4.17;2.50;;;19.20;60.70;;;;;;5046916;28;20500;-50
2022/07/07 05:35:56;;;;;;;2.53;2.33;;;19.20;60.70;;;;;;5060186;28;20455;-50
2022/07/07 05:38:28;;;;;;;3.97;2.50;;;19.20;60.90;;;;;;5060457;28;20473;-50
2022/07/07 05:40:55;;;;;;;2.20;2.00;;;19.30;60.90;;;;;;5063179;28;20461;-50
2022/07/07 05:43:21;;;;;;;3.37;2.30;;;19.20;61.00;;;;;;5046077;28;20461;-50
2022/07/07 05:45:48;;;;;;;2.50;2.30;;;19.20;61.20;;;;;;5048214;28;20464;-50
2022/07/07 05:48:15;;;;;;;2.30;2.10;;;19.20;61.20;;;;;;5061523;28;21061;-50
2022/07/07 05:50:42;;;;;;;3.73;2.50;;;19.30;61.20;;;;;;5055782;28;20461;-50
2022/07/07 05:53:09;;;;;;;2.90;2.30;;;19.30;61.10;;;;;;5048003;28;21021;-50
2022/07/07 05:55:36;;;;;;;3.33;2.70;;;19.30;61.20;;;;;;5062993;28;20836;-50
2022/07/07 05:58:03;;;;;;;5.10;2.37;;;19.30;61.30;;;;;;5057165;28;20974;-50
2022/07/07 06:00:30;;;;;;;2.50;2.30;;;19.30;61.20;;;;;;5049163;28;20545;-50
2022/07/07 06:02:57;;;;;;;4.20;2.60;;;19.30;61.30;;;;;;5056579;28;20471;-50
2022/07/07 06:05:23;;;;;;;6.40;2.60;;;19.30;61.30;;;;;;5063253;28;20537;-50
2022/07/07 06:07:50;;;;;;;3.10;2.13;;;19.30;61.50;;;;;;5046987;28;20836;-50
2022/07/07 06:10:17;;;;;;;5.97;2.77;;;19.30;61.30;;;;;;5045764;28;20456;-50
2022/07/07 06:12:44;;;;;;;4.13;2.47;;;19.30;61.50;;;;;;5060458;28;20865;-50
2022/07/07 06:15:11;;;;;;;3.83;2.63;;;19.40;61.70;;;;;;5056858;28;20468;-50
2022/07/07 06:17:39;;;;;;;2.70;2.30;;;19.30;62.00;;;;;;5063087;28;20456;-50
2022/07/07 06:20:26;;;;;;;2.53;2.33;;;19.30;62.40;;;;;;5059609;28;20472;-50
2022/07/07 06:22:53;;;;;;;2.77;2.57;;;19.30;62.60;;;;;;5061927;28;20997;-50
2022/07/07 06:25:20;;;;;;;3.27;3.00;;;19.40;62.40;;;;;;5063559;28;20835;-50
2022/07/07 06:27:47;;;;;;;4.80;2.50;;;19.40;62.70;;;;;;5056933;28;20982;-50
2022/07/07 06:30:14;;;;;;;2.80;2.47;;;19.40;62.90;;;;;;5057217;28;20455;-50
2022/07/07 06:32:41;;;;;;;3.23;2.63;;;19.40;62.80;;;;;;5062040;28;20529;-50
2022/07/07 06:35:08;;;;;;;5.47;3.20;;;19.40;63.10;;;;;;5059305;28;20446;-50
2022/07/07 06:37:34;;;;;;;3.77;2.50;;;19.50;63.10;;;;;;5059415;28;20441;-50
2022/07/07 06:40:02;;;;;;;3.70;2.53;;;19.50;63.00;;;;;;5048956;28;20448;-51
2022/07/07 06:42:29;;;;;;;3.40;2.50;;;19.50;62.90;;;;;;5059634;28;20494;-49
2022/07/07 06:44:56;;;;;;;2.43;2.20;;;19.50;63.30;;;;;;5062873;28;20446;-49
2022/07/07 06:47:22;;;;;;;4.90;2.70;;;19.60;63.20;;;;;;5040230;28;20466;-49
2022/07/07 06:49:49;;;;;;;3.77;3.03;;;19.60;63.50;;;;;;5057208;28;20450;-49
2022/07/07 06:52:16;;;;;;;2.50;2.30;;;19.70;63.40;;;;;;5059313;28;20453;-49
2022/07/07 06:54:43;;;;;;;3.03;2.63;;;19.70;63.50;;;;;;5058384;28;20874;-49
2022/07/07 06:57:10;;;;;;;5.53;2.40;;;19.70;63.70;;;;;;5047930;28;20461;-49
2022/07/07 06:59:36;;;;;;;4.57;2.43;;;19.70;63.90;;;;;;5061163;28;20489;-48
2022/07/07 07:02:04;;;;;;;4.03;3.33;;;19.70;63.90;;;;;;5060141;28;20992;-49
2022/07/07 07:04:31;;;;;;;3.40;2.40;;;19.80;64.20;;;;;;5041232;28;20497;-50
2022/07/07 07:06:59;;;;;;;4.03;2.43;;;19.80;64.30;;;;;;5056398;28;20473;-49
2022/07/07 07:09:26;;;;;;;2.93;2.27;;;19.80;64.60;;;;;;5058077;28;20461;-49
2022/07/07 07:11:54;;;;;;;5.53;2.83;;;19.80;65.10;;;;;;5050259;28;21029;-49
2022/07/07 07:14:25;;;;;;;3.70;2.90;;;19.80;65.10;;;;;;5062141;28;21013;-49
2022/07/07 07:16:51;;;;;;;5.30;2.60;;;19.80;65.10;;;;;;5059006;28;20442;-49
2022/07/07 07:19:18;;;;;;;3.13;2.57;;;19.80;65.50;;;;;;5058143;28;20446;-49
2022/07/07 07:21:45;;;;;;;4.57;2.40;;;19.90;65.90;;;;;;5060566;28;20472;-49
2022/07/07 07:24:12;;;;;;;3.10;2.80;;;19.90;65.50;;;;;;5061327;28;20452;-49
2022/07/07 07:26:39;;;;;;;4.07;2.33;;;20.00;65.50;;;;;;5057651;28;20485;-49
2022/07/07 07:29:13;;;;;;;4.97;2.90;;;20.00;65.40;;;;;;5057340;28;20461;-49
2022/07/07 07:31:40;;;;;;;3.00;2.70;;;20.00;65.20;;;;;;5060807;28;20539;-49
2022/07/07 07:34:08;;;;;;;2.70;2.50;;;20.10;65.40;;;;;;5038801;28;20490;-49
2022/07/07 07:36:35;;;;;;;5.40;2.57;;;20.10;65.70;;;;;;5057346;28;20449;-49
2022/07/07 07:39:02;;;;;;;2.77;2.50;;;20.20;65.60;;;;;;5058514;28;20589;-49
2022/07/07 07:41:29;;;;;;;4.43;2.50;;;20.30;65.60;;;;;;5044555;28;20449;-49
2022/07/07 07:43:55;;;;;;;2.60;2.40;;;20.30;65.30;;;;;;5061060;28;20510;-49
2022/07/07 07:46:22;;;;;;;2.70;2.23;;;20.40;65.00;;;;;;5046207;28;20449;-49
2022/07/07 07:48:49;;;;;;;3.10;2.47;;;20.30;65.00;;;;;;5057555;28;20446;-49
2022/07/07 07:51:16;;;;;;;3.33;3.00;;;20.40;65.40;;;;;;5063957;28;20495;-49
2022/07/07 07:53:43;;;;;;;3.50;2.30;;;20.40;65.60;;;;;;5043515;28;20493;-49
2022/07/07 07:56:10;;;;;;;2.60;2.07;;;20.50;65.60;;;;;;5058604;28;20468;-49
2022/07/07 07:58:36;;;;;;;3.13;2.40;;;20.50;65.90;;;;;;5063105;28;21039;-49
2022/07/07 08:01:04;;;;;;;2.97;2.37;;;20.50;65.90;;;;;;5058800;28;20488;-49
2022/07/07 08:03:31;;;;;;;3.00;2.43;;;20.50;65.60;;;;;;5048213;28;20823;-49
2022/07/07 08:05:59;;;;;;;2.50;2.30;;;20.60;65.90;;;;;;5062540;28;20480;-49
2022/07/07 08:08:25;;;;;;;2.73;2.23;;;20.60;65.70;;;;;;5059477;28;20835;-49
2022/07/07 08:10:52;;;;;;;2.87;2.60;;;20.70;66.10;;;;;;5061074;28;20462;-49
2022/07/07 08:13:19;;;;;;;2.53;2.30;;;20.80;65.40;;;;;;5043671;28;20971;-49
2022/07/07 08:15:46;;;;;;;3.27;2.77;;;21.00;65.40;;;;;;5063434;28;20732;-49
2022/07/07 08:18:13;;;;;;;3.47;2.50;;;21.10;65.10;;;;;;5049534;28;20469;-49
2022/07/07 08:20:40;;;;;;;2.53;2.37;;;21.20;65.20;;;;;;5062739;28;20524;-49
2022/07/07 08:23:07;;;;;;;3.60;2.47;;;21.30;64.80;;;;;;5049956;28;20601;-49
2022/07/07 08:25:34;;;;;;;3.03;2.63;;;21.40;64.40;;;;;;5061600;28;20834;-49
2022/07/07 08:28:01;;;;;;;3.73;2.17;;;21.40;64.10;;;;;;5065134;28;20539;-49
2022/07/07 08:30:28;;;;;;;2.50;2.00;;;21.40;64.10;;;;;;5063779;28;20859;-49
2022/07/07 08:32:54;;;;;;;2.27;2.07;;;21.40;63.80;;;;;;5055897;28;20443;-49
2022/07/07 08:35:21;;;;;;;2.47;2.10;;;21.30;64.20;;;;;;5063568;28;20489;-49
2022/07/07 08:37:48;;;;;;;2.27;1.97;;;21.30;64.50;;;;;;5058437;28;20446;-49
2022/07/07 08:40:15;;;;;;;3.07;2.20;;;21.20;64.40;;;;;;5055666;28;20457;-50
2022/07/07 08:42:42;;;;;;;3.77;2.27;;;21.20;64.50;;;;;;5048704;28;20451;-49
2022/07/07 08:45:09;;;;;;;3.33;1.60;;;21.20;64.80;;;;;;5061697;28;20465;-49
2022/07/07 08:47:36;;;;;;;3.37;2.30;;;21.20;64.70;;;;;;5059736;28;20447;-50
2022/07/07 08:50:03;;;;;;;2.43;2.23;;;21.20;64.90;;;;;;5061270;28;20496;-49
2022/07/07 08:52:30;;;;;;;3.83;2.20;;;21.30;64.70;;;;;;5060087;28;20704;-50
2022/07/07 08:54:57;;;;;;;2.73;1.67;;;21.30;64.90;;;;;;5050987;28;21045;-49
2022/07/07 08:57:25;;;;;;;2.43;2.23;;;21.30;64.70;;;;;;5060990;28;20454;-49
2022/07/07 08:59:56;;;;;;;4.77;2.27;;;21.30;64.60;;;;;;5060264;28;20488;-49
2022/07/07 09:02:25;;;;;;;2.53;2.33;;;21.30;64.50;;;;;;5064809;28;20459;-49
2022/07/07 09:04:52;;;;;;;2.47;2.23;;;21.30;64.50;;;;;;5063945;28;20449;-49
2022/07/07 09:07:19;;;;;;;2.40;1.60;;;21.30;64.40;;;;;;5063808;28;20446;-49
2022/07/07 09:09:49;;;;;;;2.60;1.90;;;21.20;64.70;;;;;;5064186;28;20533;-49
2022/07/07 09:12:17;;;;;;;2.37;1.63;;;21.20;64.40;;;;;;5059406;28;20544;-49
2022/07/07 09:14:47;;;;;;;2.57;2.33;;;21.20;64.10;;;;;;5063097;28;20509;-49
2022/07/07 09:17:25;;;;;;;2.33;2.10;;;21.20;65.20;;;;;;5049116;28;20464;-49
2022/07/07 09:20:11;;;;;;;2.50;2.30;;;21.10;66.30;;;;;;5059672;28;20473;-49
2022/07/07 09:22:59;;;;;;;2.57;2.37;;;21.00;68.60;;;;;;5063927;28;20516;-49
2022/07/07 09:25:31;;;;;;;2.93;2.63;;;20.90;69.70;;;;;;5060947;28;20450;-49
2022/07/07 09:28:06;;;;;;;2.60;2.40;;;20.70;71.50;;;;;;5048627;28;20457;-49
2022/07/07 09:30:37;;;;;;;3.40;2.17;;;20.60;72.00;;;;;;5059970;28;20454;-49
2022/07/07 09:33:07;;;;;;;2.97;2.10;;;20.50;71.80;;;;;;5059981;28;20456;-49
2022/07/07 09:38:25;;;;;;;2.30;2.10;;;20.30;72.40;;;;;;5062778;28;20468;-49
2022/07/07 09:41:05;;;;;;;2.20;1.87;;;20.20;73.20;;;;;;5045513;28;20508;-49
2022/07/07 09:43:36;;;;;;;3.77;2.10;;;20.10;74.20;;;;;;5062544;28;20461;-49
2022/07/07 09:46:16;;;;;;;2.47;2.23;;;20.00;74.50;;;;;;5059996;28;20449;-49
2022/07/07 09:48:48;;;;;;;2.60;2.40;;;19.90;74.60;;;;;;5063045;28;20544;-49
2022/07/07 09:51:24;;;;;;;3.03;2.43;;;19.80;74.90;;;;;;5060203;28;20846;-49
2022/07/07 09:54:19;;;;;;;2.10;2.00;;;19.80;75.00;;;;;;5060319;28;20998;-49
2022/07/07 09:56:47;;;;;;;3.27;2.70;;;19.80;76.10;;;;;;5040988;28;20469;-49
2022/07/07 09:59:16;;;;;;;2.67;2.47;;;19.90;75.40;;;;;;5060536;28;20462;-49
2022/07/07 10:01:45;;;;;;;2.33;2.13;;;19.90;76.00;;;;;;5047529;28;20437;-49
2022/07/07 10:04:19;;;;;;;2.67;2.47;;;20.00;75.50;;;;;;5062177;28;20461;-49
2022/07/07 10:06:46;;;;;;;2.70;2.50;;;20.00;75.50;;;;;;5063178;28;20456;-49
2022/07/07 10:09:21;;;;;;;2.73;2.03;;;20.00;75.10;;;;;;5063057;28;20457;-49
2022/07/07 10:11:52;;;;;;;3.10;1.70;;;20.00;74.50;;;;;;5051094;28;20476;-49
2022/07/07 10:14:33;;;;;;;1.60;1.50;;;20.00;74.30;;;;;;5062311;28;21017;-49
2022/07/07 10:17:01;;;;;;;1.70;1.60;;;20.10;73.10;;;;;;5059402;28;20469;-49
2022/07/07 10:19:28;;;;;;;1.50;1.40;;;20.10;73.30;;;;;;5060337;28;21288;-49
2022/07/07 10:21:57;;;;;;;1.50;1.33;;;20.10;72.60;;;;;;5062234;28;20441;-49
2022/07/07 10:24:29;;;;;;;1.63;1.53;;;20.20;72.60;;;;;;5061322;28;20456;-49
2022/07/07 10:27:01;;;;;;;1.70;1.60;;;20.10;72.00;;;;;;5059898;28;21164;-49
2022/07/07 10:29:52;;;;;;;1.73;1.63;;;20.20;72.90;;;;;;5062717;28;20463;-49
2022/07/07 10:32:34;;;;;;;1.63;1.53;;;20.10;72.70;;;;;;5062595;28;20453;-49
2022/07/07 10:35:09;;;;;;;1.80;1.70;;;20.20;72.60;;;;;;5062500;28;20496;-49
2022/07/07 10:37:46;;;;;;;1.67;1.57;;;20.20;72.40;;;;;;5056937;28;20461;-49
2022/07/07 10:40:28;;;;;;;1.53;1.43;;;20.20;72.60;;;;;;5048606;28;21009;-49
2022/07/07 10:43:13;;;;;;;3.23;1.37;;;20.10;72.40;;;;;;5061020;28;21018;-49
2022/07/07 10:45:51;;;;;;;1.30;1.20;;;20.20;71.80;;;;;;5058927;28;20480;-49
2022/07/07 10:48:41;;;;;;;1.87;1.30;;;20.20;71.40;;;;;;5038928;28;20533;-49
2022/07/07 10:51:27;;;;;;;1.33;1.17;;;20.30;70.10;;;;;;5062113;28;20472;-49
2022/07/07 10:54:01;;;;;;;2.67;1.37;;;20.40;70.10;;;;;;5047284;28;21076;-49
2022/07/07 10:56:48;;;;;;;1.67;1.50;;;20.40;70.00;;;;;;5039170;28;20544;-49
2022/07/07 10:59:14;;;;;;;1.23;1.03;;;20.40;70.20;;;;;;5057353;28;20462;-49
2022/07/07 11:02:01;;;;;;;1.63;1.00;;;20.40;69.20;;;;;;5046137;28;20816;-49
2022/07/07 11:04:44;;;;;;;0.93;0.70;;;20.40;67.60;;;;;;5059199;28;20669;-49
2022/07/07 11:07:14;;;;;;;1.03;0.70;;;20.40;66.70;;;;;;5056221;28;20472;-49
2022/07/07 11:09:57;;;;;;;1.47;0.73;;;20.40;65.00;;;;;;5033386;28;20943;-49
2022/07/07 11:12:38;;;;;;;3.00;0.60;;;20.50;64.30;;;;;;5036803;28;20457;-49
2022/07/07 11:15:34;;;;;;;1.00;0.57;;;20.50;64.10;;;;;;5062625;28;20851;-49
2022/07/07 11:18:01;;;;;;;1.57;0.70;;;20.60;63.50;;;;;;5036109;28;20462;-49
2022/07/07 11:20:32;;;;;;;4.90;1.03;;;20.60;62.70;;;;;;5056217;28;20487;-49
2022/07/07 11:23:11;;;;;;;0.70;0.70;;;20.70;61.90;;;;;;5046837;28;20848;-49
2022/07/07 11:25:39;;;;;;;1.37;0.90;;;20.70;60.70;;;;;;5060746;28;20446;-49
2022/07/07 11:28:08;;;;;;;2.40;0.90;;;20.80;59.60;;;;;;5059156;28;20469;-49
2022/07/07 11:30:37;;;;;;;1.50;0.70;;;20.80;60.20;;;;;;5059708;28;20994;-49
2022/07/07 11:33:04;;;;;;;1.00;1.00;;;20.90;60.70;;;;;;5059521;28;20912;-49
2022/07/07 11:35:36;;;;;;;1.17;0.93;;;20.80;61.10;;;;;;5045512;28;20493;-49
2022/07/07 11:38:12;;;;;;;2.47;1.13;;;20.80;61.60;;;;;;5049405;28;20447;-49
2022/07/07 11:40:40;;;;;;;1.30;1.20;;;20.90;62.30;;;;;;5058485;28;20533;-49
2022/07/07 11:43:20;;;;;;;1.80;1.63;;;21.00;62.90;;;;;;5060761;28;20445;-49
2022/07/07 11:45:47;;;;;;;1.97;1.40;;;21.10;62.40;;;;;;5044619;28;20541;-49
2022/07/07 11:48:14;;;;;;;2.30;1.23;;;21.10;62.50;;;;;;5062058;28;20544;-49
2022/07/07 11:50:41;;;;;;;1.43;1.33;;;21.20;62.80;;;;;;5049091;28;20484;-49
2022/07/07 11:53:09;;;;;;;1.73;1.30;;;21.20;62.70;;;;;;5049362;28;21027;-49
2022/07/07 11:55:37;;;;;;;1.30;1.20;;;21.10;62.70;;;;;;5060802;28;20713;-49
2022/07/07 11:58:06;;;;;;;1.63;1.53;;;21.10;63.30;;;;;;5060222;28;20458;-49
2022/07/07 12:00:38;;;;;;;1.37;1.27;;;21.10;63.30;;;;;;5062502;28;20481;-49
2022/07/07 12:03:08;;;;;;;2.93;1.10;;;21.10;63.30;;;;;;5061306;28;20541;-49
2022/07/07 12:05:46;;;;;;;0.70;0.70;;;21.00;63.70;;;;;;5060972;28;20958;-50
2022/07/07 12:08:14;;;;;;;1.10;0.60;;;21.10;62.90;;;;;;5032861;28;20450;-50
2022/07/07 12:10:42;;;;;;;0.70;0.50;;;21.10;62.30;;;;;;5060752;28;20450;-50
2022/07/07 12:13:11;;;;;;;1.03;0.77;;;21.10;61.40;;;;;;5048650;28;20450;-50
2022/07/07 12:15:40;;;;;;;1.13;1.00;;;21.20;60.70;;;;;;5064137;28;20580;-50
2022/07/07 12:18:09;;;;;;;4.03;0.90;;;21.20;60.10;;;;;;5048709;28;20489;-50
2022/07/07 12:20:38;;;;;;;1.23;1.00;;;21.30;60.10;;;;;;5060278;28;20455;-50
2022/07/07 12:23:16;;;;;;;1.20;1.10;;;21.30;59.90;;;;;;5062309;28;20452;-50
2022/07/07 12:25:43;;;;;;;1.70;1.60;;;21.30;60.50;;;;;;5047671;28;20472;-50
2022/07/07 12:28:17;;;;;;;2.33;1.73;;;21.30;60.90;;;;;;5051360;28;20829;-50
2022/07/07 12:30:55;;;;;;;1.50;1.23;;;21.40;60.40;;;;;;5062769;28;21601;-50
2022/07/07 12:33:30;;;;;;;6.77;1.63;;;21.50;61.00;;;;;;5062772;28;20943;-50
2022/07/07 12:36:22;;;;;;;1.90;1.33;;;21.50;60.10;;;;;;5064521;28;20863;-50
2022/07/07 12:38:57;;;;;;;2.10;1.57;;;21.60;60.20;;;;;;5061322;28;20549;-50
2022/07/07 12:41:25;;;;;;;5.13;2.27;;;21.60;60.20;;;;;;5060439;28;20445;-50
2022/07/07 12:43:54;;;;;;;1.90;1.70;;;21.60;60.60;;;;;;5065659;28;20548;-50
2022/07/07 12:46:31;;;;;;;5.43;2.43;;;21.70;61.00;;;;;;5061813;28;21823;-50
2022/07/07 12:48:59;;;;;;;5.13;1.97;;;21.70;61.00;;;;;;5063102;28;20434;-50
2022/07/07 12:51:28;;;;;;;3.03;2.27;;;21.80;61.10;;;;;;5046036;28;20462;-50
2022/07/07 12:53:55;;;;;;;2.00;1.80;;;21.80;61.10;;;;;;5060607;28;20467;-50
2022/07/07 12:56:39;;;;;;;1.43;1.33;;;21.90;60.80;;;;;;5059121;28;20515;-50
2022/07/07 12:59:21;;;;;;;2.70;1.10;;;22.00;59.60;;;;;;5056849;28;21073;-50
2022/07/07 13:01:53;;;;;;;1.30;1.20;;;22.10;58.90;;;;;;5056125;28;20489;-50